x

Ilm2 - 5 Miles Se Of Wrightsville Beach, Nc (41038) Weather Station

11:00pm - Wed 16th Apr 2014 All times are EDT. -4 hours from GMT.

  • Wind
    25mph, 29mph gusts
  • Sea Temp 60°f
  • 空気 Temp 51°f
  • Sea Pressure 1028.8mb
  • Ilm2 - 5 Miles Se Of Wrightsville Beach, Nc
  • Ilm2 - 5 Miles Se Of Wrightsville Beach, Nc

More Historic Weather Station data

Upgrade to MSW Pro to gain access to the past 30 days of data for over 8000 Wavebouys and Weather Stations around the globe.

Join Pro

Comparision Forecast

View Surf forecast
   
Wed 04/16 11:00pm 25 29 mph 1028.8mb 60f 51f
10:00pm 25 29 mph 1028.8mb 60f 51f
9:00pm 22 27 mph 1028.8mb 60f 52f
8:00pm 20 25 mph 1027.9mb 60f 53f
7:00pm 20 25 mph 1027.4mb 60f 53f
6:00pm 16 20 mph 1027.2mb 60f 53f
5:00pm 18 22 mph 1027mb 60f 52f
4:00pm 16 18 mph 1026.7mb 60f 51f
3:00pm 20 22 mph 1026.9mb 60f 50f
2:00pm 18 25 mph 1027.1mb 60f 49f
1:00pm 18 20 mph 1026.9mb 60f 47f
12:00pm 22 27 mph 1027.3mb 60f 46f
11:00am 22 29 mph 1026.6mb 60f 46f
10:00am 27 34 mph 1025.6mb 60f 44f
9:00am 27 31 mph 1024.3mb 60f 43f
8:00am 31 40 mph 1022.9mb 60f 43f
7:00am 31 36 mph 1022.5mb 60f 43f
6:00am 27 34 mph 1020.6mb 60f 45f
5:00am 29 36 mph 1018.9mb 60f 47f
4:00am 29 36 mph 1017.9mb 60f 48f
3:00am 31 36 mph 1015.6mb 60f 49f
2:00am 25 31 mph 1014.6mb 61f 49f
1:00am 31 38 mph 1012mb 61f 51f
12:00am 31 36 mph 1011.2mb 61f 51f
Tue 04/15 11:00pm 27 36 mph 1009.4mb 61f 53f
10:00pm 31 38 mph 1006.5mb 62f 56f
9:00pm 22 25 mph 1005mb 62f 66f
8:00pm 25 27 mph 1004.6mb 62f 66f
7:00pm 20 25 mph 1004.4mb 62f 65f
6:00pm 20 27 mph 1005.2mb 62f 65f
5:00pm 20 25 mph 1005.6mb 62f 65f
4:00pm 18 22 mph 1006.7mb 62f 65f
3:00pm 18 20 mph 1007.7mb 62f 65f
2:00pm 11 16 mph 1007.9mb 62f 65f
1:00pm 18
mph
1008.5mb 62f 65f
12:00pm 18 22 mph 1008.9mb 62f 65f
11:00am 16 18 mph 1009.1mb 62f 65f
10:00am 16 20 mph 1008.7mb 63f 66f
9:00am 18 20 mph 1009mb 63f 66f
8:00am 22 27 mph 1008.4mb 63f 67f
7:00am 20 25 mph 1008.9mb 64f 67f
6:00am 20 25 mph 1009.1mb 64f 67f
5:00am 22 27 mph 1009.2mb 64f 68f
4:00am 13 18 mph 1010.2mb 64f 67f
3:00am 13 18 mph 1011mb 64f 67f
2:00am 16 18 mph 1011.5mb 65f 67f
1:00am 16 18 mph 1012.1mb 65f 68f
12:00am 16 18 mph 1012.8mb 65f 67f
Mon 04/14 11:00pm 13 16 mph 1013.2mb 65f 67f
10:00pm 13 18 mph 1014.2mb 65f 67f
9:00pm 7 9 mph 1014.6mb 66f 67f
8:00pm 13 16 mph 1014.2mb 66f 68f
7:00pm 13 16 mph 1014.4mb 66f 68f
6:00pm 9 13 mph 1014.9mb 66f 68f
5:00pm 9 11 mph 1015.3mb 67f 69f
4:00pm 9 11 mph 1016.3mb 67f 68f
3:00pm 4 7 mph 1017.2mb 67f 68f
2:00pm 4 7 mph 1018.1mb 66f 69f
1:00pm 7 9 mph 1018.6mb 65f 68f
12:00pm 9 11 mph 1019.4mb 65f 68f
11:00am 9
mph
1019.4mb 64f 67f
10:00am 9 11 mph 1019.3mb 64f 67f
9:00am 9 11 mph 1019.2mb 64f 66f
8:00am 9 11 mph 1018.8mb 63f 67f
7:00am 9 11 mph 1018.5mb 63f 66f
6:00am 9 11 mph 1018.4mb 64f 66f
5:00am 9 11 mph 1018.9mb 64f 65f
4:00am 9 11 mph 1019.5mb 64f 66f
3:00am 11 13 mph 1019.9mb 64f 66f
2:00am 11 13 mph 1020.4mb 64f 66f
1:00am 11 13 mph 1020.9mb 65f 67f
12:00am 9 13 mph 1021.4mb 65f 67f
Sun 04/13 11:00pm 11 13 mph 1021.4mb 65f 68f
10:00pm 11 13 mph 1021.4mb 66f 68f
9:00pm 7 9 mph 1021.5mb 66f 68f
8:00pm 7
mph
1021.3mb 67f 68f
7:00pm 4 7 mph 1021.7mb 67f 68f
6:00pm 4 7 mph 1021.8mb 66f 69f
5:00pm 4 7 mph 1022mb 67f 69f
4:00pm 7 9 mph 1022.2mb 65f 69f
3:00pm 7
mph
1022.8mb 65f 69f
2:00pm 4 7 mph 1023.4mb 64f 69f
1:00pm 7
mph
1023.7mb 63f 68f
12:00pm 7 9 mph 1024.2mb 63f 67f
11:00am 4 7 mph 1024.6mb 62f 67f
10:00am 2 4 mph 1024.5mb 61f 67f
9:00am 2
mph
1024.4mb 61f 68f
8:00am 2
mph
1024mb 61f 66f
7:00am 7
mph
1023.4mb 61f 64f
6:00am 4 7 mph 1022.9mb 61f 63f
5:00am 4 7 mph 1022.5mb 61f 63f